Time;durP1;ratioP1;P1;durP2;ratioP2;P2;SDS_P1;SDS_P2;PMS_P1;PMS_P2;Temp;Humidity;BMP_temperature;BMP_pressure;BME280_temperature;BME280_humidity;BME280_pressure;Samples;Min_cycle;Max_cycle;Signal;HPM_P1;HPM_P2
2022/02/05 00:02:40;;;;;;;4.83;1.93;;;;;;;-145.69;100.00;72863.22;5113374;28;20189;-77
2022/02/05 00:05:08;;;;;;;2.53;1.67;;;;;;;-145.69;100.00;72863.22;5112120;28;20201;-76
2022/02/05 00:07:40;;;;;;;1.57;1.40;;;;;;;-145.69;100.00;72879.16;5113153;28;20198;-77
2022/02/05 00:10:27;;;;;;;2.23;1.60;;;;;;;-145.69;100.00;72885.13;5113315;28;20615;-76
2022/02/05 00:13:11;;;;;;;3.63;1.93;;;;;;;-145.69;100.00;72899.06;5112791;28;20288;-77
2022/02/05 00:15:47;;;;;;;5.00;2.20;;;;;;;-145.69;100.00;72899.06;5113238;28;20197;-77
2022/02/05 00:40:40;;;;;;;4.43;3.10;;;;;;;-145.69;100.00;72930.91;5075850;28;20749;-76
2022/02/05 00:43:05;;;;;;;4.77;2.90;;;;;;;-145.69;100.00;72936.88;5109266;28;20270;-76
2022/02/05 00:45:34;;;;;;;4.07;2.90;;;;;;;-145.69;100.00;72942.84;5092133;28;20205;-75
2022/02/05 00:48:02;;;;;;;4.07;2.80;;;;;;;-145.69;100.00;72954.78;5092443;28;20202;-76
2022/02/05 00:50:31;;;;;;;4.67;2.43;;;;;;;-145.69;100.00;72956.78;5092137;28;20320;-76
2022/02/05 00:53:02;;;;;;;6.83;3.03;;;;;;;-145.69;100.00;72966.72;5092652;28;20255;-76
2022/02/05 00:55:34;;;;;;;4.83;3.20;;;;;;;-145.69;100.00;72966.72;5096420;28;20205;-75
2022/02/05 00:58:03;;;;;;;6.03;3.30;;;;;;;-145.69;100.00;72984.66;5096227;28;20278;-76
2022/02/05 01:00:31;;;;;;;4.47;3.50;;;;;;;-145.69;100.00;72978.69;5096149;28;20198;-76
2022/02/05 01:02:58;;;;;;;5.77;3.43;;;;;;;-145.69;100.00;72986.63;5096057;28;20202;-76
2022/02/05 01:05:24;;;;;;;8.87;3.30;;;;;;;-145.69;100.00;72986.63;5098011;28;20202;-76
2022/02/05 01:07:51;;;;;;;6.70;3.70;;;;;;;-145.69;100.00;72990.63;5096308;28;20205;-76
2022/02/05 01:10:18;;;;;;;5.57;3.67;;;;;;;-145.69;100.00;73002.56;5095924;28;20560;-76
2022/02/05 01:12:51;;;;;;;6.43;3.83;;;;;;;-145.69;100.00;73008.53;5095996;28;20194;-76
2022/02/05 01:15:20;;;;;;;7.77;3.70;;;;;;;-145.69;100.00;73030.44;5095809;28;20202;-76
2022/02/05 01:17:56;;;;;;;8.07;3.90;;;;;;;-145.69;100.00;73038.41;5095720;28;20711;-76
2022/02/05 01:20:50;;;;;;;5.27;3.27;;;;;;;-145.69;100.00;73044.38;5095957;28;20197;-75
2022/02/05 01:23:23;;;;;;;5.60;3.03;;;;;;;-145.69;100.00;73050.34;5095689;28;20617;-75
2022/02/05 01:25:58;;;;;;;6.10;3.33;;;;;;;-145.69;100.00;73064.28;5095545;28;20198;-75
2022/02/05 01:28:31;;;;;;;8.53;3.70;;;;;;;-145.69;100.00;73078.22;5095688;28;20251;-76
2022/02/05 01:30:58;;;;;;;8.60;4.23;;;;;;;-145.69;100.00;73088.16;5095662;28;20220;-76
2022/02/05 01:33:41;;;;;;;7.13;3.87;;;;;;;-145.69;100.00;73082.19;5105838;28;20236;-76
2022/02/05 01:36:26;;;;;;;6.40;4.33;;;;;;;-145.69;100.00;73082.19;5115750;28;20197;-75
2022/02/05 01:50:16;;;;;;;10.67;3.97;;;;;;;-145.69;100.00;73141.91;5115761;28;20216;-76
2022/02/05 01:53:03;;;;;;;8.77;3.70;;;;;;;-145.69;100.00;73139.91;5115403;28;20237;-76
2022/02/05 01:55:37;;;;;;;9.03;4.13;;;;;;;-145.69;100.00;73153.84;5115514;28;20651;-76
2022/02/05 01:58:16;;;;;;;6.90;3.90;;;;;;;-145.69;100.00;73139.91;5115563;28;20220;-76
2022/02/05 02:06:17;;;;;;;6.40;3.40;;;;;;;-145.69;100.00;73157.84;5113514;28;20204;-76
2022/02/05 02:11:39;;;;;;;6.93;3.40;;;;;;;-145.69;100.00;73163.81;5115221;28;20729;-76
2022/02/05 02:14:33;;;;;;;9.03;3.30;;;;;;;-145.69;100.00;73179.75;5115106;28;20647;-76
2022/02/05 02:17:44;;;;;;;7.37;3.50;;;;;;;-145.69;100.00;73173.75;5115181;28;20233;-75
2022/02/05 02:20:21;;;;;;;5.53;3.00;;;;;;;-145.69;100.00;73173.75;5114720;28;20197;-76
2022/02/05 02:23:02;;;;;;;6.50;3.57;;;;;;;-145.69;100.00;73189.69;5114998;28;20702;-76
2022/02/05 02:25:43;;;;;;;6.60;3.07;;;;;;;-145.69;100.00;73199.66;5114850;28;20621;-76
2022/02/05 02:28:16;;;;;;;7.53;3.20;;;;;;;-145.69;100.00;73203.63;5114834;28;20205;-76
2022/02/05 02:30:53;;;;;;;6.00;3.50;;;;;;;-145.69;100.00;73213.56;5114668;28;20652;-76
2022/02/05 02:33:27;;;;;;;11.43;4.50;;;;;;;-145.69;100.00;73205.63;5112928;28;20604;-76
2022/02/05 02:35:54;;;;;;;8.03;3.50;;;;;;;-145.69;100.00;73219.56;5114921;28;20254;-75
2022/02/05 02:38:26;;;;;;;5.80;3.07;;;;;;;-145.69;100.00;73223.53;5114613;28;20229;-75
2022/02/05 02:41:00;;;;;;;7.80;3.30;;;;;;;-145.69;100.00;73231.50;5114679;28;20198;-76
2022/02/05 02:43:30;;;;;;;4.70;2.80;;;;;;;-145.69;100.00;73235.47;5114729;28;20251;-76
2022/02/05 02:45:57;;;;;;;6.83;3.47;;;;;;;-145.69;100.00;73249.41;5114694;28;20234;-76
2022/02/05 02:48:23;;;;;;;7.67;3.13;;;;;;;-145.69;100.00;73257.38;5114473;28;20295;-76
2022/02/05 02:59:19;;;;;;;5.57;2.83;;;;;;;-145.69;100.00;73277.28;5106979;28;20213;-76
2022/02/05 03:01:46;;;;;;;8.80;3.17;;;;;;;-145.69;100.00;73313.13;5114322;28;20193;-76
2022/02/05 03:04:12;;;;;;;6.90;3.17;;;;;;;-145.69;100.00;73309.13;5095066;28;20201;-75
2022/02/05 03:06:39;;;;;;;6.30;3.03;;;;;;;-145.69;100.00;73317.09;5093828;28;20197;-76
2022/02/05 03:09:06;;;;;;;8.70;3.43;;;;;;;-145.69;100.00;73323.06;5093822;28;20205;-76
2022/02/05 03:11:33;;;;;;;5.50;3.40;;;;;;;-145.69;100.00;73344.97;5096107;28;20630;-75
2022/02/05 03:13:59;;;;;;;6.17;3.03;;;;;;;-145.69;100.00;73348.97;5093571;28;20208;-76
2022/02/05 03:16:28;;;;;;;5.70;3.27;;;;;;;-145.69;100.00;73366.88;5093180;28;20595;-76
2022/02/05 03:19:09;;;;;;;7.87;3.33;;;;;;;-145.69;100.00;73382.81;5093884;28;20202;-76
2022/02/05 03:21:36;;;;;;;6.70;3.40;;;;;;;-145.69;100.00;73372.84;5093827;28;20201;-76
2022/02/05 03:24:03;;;;;;;10.07;3.83;;;;;;;-145.69;100.00;73392.75;5093544;28;20599;-76
2022/02/05 03:26:33;;;;;;;8.80;4.13;;;;;;;-145.69;100.00;73392.75;5093353;28;20194;-76
2022/02/05 03:28:59;;;;;;;10.13;4.20;;;;;;;-145.69;100.00;73390.75;5093631;28;20202;-75
2022/02/05 03:31:26;;;;;;;7.87;4.37;;;;;;;-145.69;100.00;73398.72;5093541;28;20194;-76
2022/02/05 03:33:52;;;;;;;8.03;3.83;;;;;;;-145.69;100.00;73420.63;5095896;28;20201;-76
2022/02/05 03:36:19;;;;;;;8.17;3.73;;;;;;;-145.69;100.00;73434.56;5093358;28;20206;-75
2022/02/05 03:38:45;;;;;;;10.27;3.73;;;;;;;-145.69;100.00;73440.53;5093185;28;20229;-76
2022/02/05 03:41:11;;;;;;;13.90;5.40;;;;;;;-145.69;100.00;73432.56;5093229;28;20205;-75
2022/02/05 03:43:39;;;;;;;11.23;4.17;;;;;;;-145.69;100.00;73440.53;5093079;28;20672;-76
2022/02/05 03:46:05;;;;;;;13.67;4.40;;;;;;;-145.69;100.00;73448.50;5093154;28;20592;-76
2022/02/05 03:48:32;;;;;;;11.63;4.40;;;;;;;-145.69;100.00;73464.44;5093164;28;20198;-75
2022/02/05 03:50:59;;;;;;;12.43;4.47;;;;;;;-145.69;100.00;73478.34;5093123;28;20249;-75
2022/02/05 03:53:25;;;;;;;11.43;4.50;;;;;;;-145.69;100.00;73466.41;5093120;28;20198;-75
2022/02/05 03:55:52;;;;;;;13.60;5.27;;;;;;;-145.69;100.00;73468.41;5092992;28;20216;-75
2022/02/05 03:58:18;;;;;;;15.13;5.10;;;;;;;-145.69;100.00;73486.31;5093059;28;20611;-75
2022/02/05 04:00:46;;;;;;;17.73;5.43;;;;;;;-145.69;100.00;73480.34;5093001;28;20598;-75
2022/02/05 04:03:13;;;;;;;14.10;5.43;;;;;;;-145.69;100.00;73476.38;5105827;28;20190;-75
2022/02/05 04:05:40;;;;;;;16.07;5.30;;;;;;;-145.69;100.00;73480.34;5113341;28;20537;-75
2022/02/05 04:08:09;;;;;;;14.53;5.13;;;;;;;-145.69;100.00;73492.28;5113249;28;20209;-75
2022/02/05 04:10:44;;;;;;;12.17;4.67;;;;;;;-145.69;100.00;73508.22;5113259;28;20552;-76
2022/02/05 04:16:07;;;;;;;17.90;5.73;;;;;;;-145.69;100.00;73508.22;5113480;28;20200;-75
2022/02/05 04:18:33;;;;;;;16.30;6.03;;;;;;;-145.69;100.00;73520.16;5113328;28;20619;-75
2022/02/05 04:21:00;;;;;;;22.77;6.57;;;;;;;-145.69;100.00;73506.22;5113295;28;20193;-76
2022/02/05 04:23:27;;;;;;;22.97;6.67;;;;;;;-145.69;100.00;73520.16;5113071;28;20206;-75
2022/02/05 04:25:53;;;;;;;23.77;6.40;;;;;;;-145.69;100.00;73528.13;5113260;28;20205;-75
2022/02/05 04:28:19;;;;;;;21.00;7.40;;;;;;;-145.69;100.00;73516.19;5115141;28;20242;-75
2022/02/05 04:30:46;;;;;;;13.37;5.33;;;;;;;-145.69;100.00;73526.16;5117392;28;20204;-75
2022/02/05 04:33:14;;;;;;;15.10;6.00;;;;;;;-145.69;100.00;73516.19;5105599;28;20192;-75
2022/02/05 04:35:44;;;;;;;14.77;5.77;;;;;;;-145.69;100.00;73512.22;5116977;28;20725;-75
2022/02/05 04:38:10;;;;;;;13.13;5.77;;;;;;;-145.69;100.00;73524.16;5117151;28;20229;-75
2022/02/05 04:40:42;;;;;;;18.97;5.90;;;;;;;-145.69;100.00;73526.16;5117088;28;20198;-75
2022/02/05 04:43:19;;;;;;;14.40;6.27;;;;;;;-145.69;100.00;73520.16;5117154;28;20201;-75
2022/02/05 04:46:19;;;;;;;15.23;5.83;;;;;;;-145.69;100.00;73544.06;5116905;28;20197;-76
2022/02/05 04:49:12;;;;;;;12.93;4.83;;;;;;;-145.69;100.00;73567.94;5116807;28;20292;-75
2022/02/05 05:00:14;;;;;;;15.70;5.30;;;;;;;-145.69;100.00;73567.94;5102029;28;20228;-75
2022/02/05 05:02:53;;;;;;;13.37;5.63;;;;;;;-145.69;100.00;73560.00;5106099;28;20194;-75
2022/02/05 05:05:38;;;;;;;14.17;5.73;;;;;;;-145.69;100.00;73575.91;5098619;28;20272;-75
2022/02/05 05:08:25;;;;;;;13.07;4.80;;;;;;;-145.69;100.00;73573.94;5096094;28;20698;-75
2022/02/05 05:11:35;;;;;;;15.37;5.20;;;;;;;-145.69;100.00;73599.81;5096216;28;20213;-75
2022/02/05 05:19:34;;;;;;;12.27;4.33;;;;;;;-145.69;100.00;73657.53;5095844;28;20201;-75
2022/02/05 05:22:04;;;;;;;14.53;4.63;;;;;;;-145.69;100.00;73647.59;5095948;28;20259;-75
2022/02/05 05:24:31;;;;;;;11.70;4.83;;;;;;;-145.69;100.00;73673.47;5095659;28;20645;-75
2022/02/05 05:26:58;;;;;;;15.77;4.40;;;;;;;-145.69;100.00;73683.44;5095703;28;20247;-75
2022/02/05 05:29:24;;;;;;;11.13;4.27;;;;;;;-145.69;100.00;73667.50;5095642;28;20206;-75
2022/02/05 05:31:51;;;;;;;7.80;3.73;;;;;;;-145.69;100.00;73697.38;5098808;28;20579;-75
2022/02/05 05:34:17;;;;;;;13.23;4.40;;;;;;;-145.69;100.00;73683.44;5116040;28;20274;-75
2022/02/05 05:36:44;;;;;;;12.30;4.27;;;;;;;-145.69;100.00;73687.41;5115988;28;20261;-75
2022/02/05 05:39:13;;;;;;;11.90;4.53;;;;;;;-145.69;100.00;73695.38;5115239;28;20229;-75
2022/02/05 05:41:40;;;;;;;14.00;4.83;;;;;;;-145.69;100.00;73707.31;5100253;28;20247;-75
2022/02/05 05:44:31;;;;;;;13.43;5.10;;;;;;;-145.69;100.00;73673.47;5095297;28;20202;-75
2022/02/05 05:47:15;;;;;;;17.20;5.73;;;;;;;-145.69;100.00;73663.53;5095461;28;20248;-75
2022/02/05 05:49:58;;;;;;;22.07;5.57;;;;;;;-145.69;100.00;73667.50;5095120;28;20672;-76
2022/02/05 05:52:25;;;;;;;19.73;5.50;;;;;;;-145.69;100.00;73683.44;5095107;28;20206;-76
2022/02/05 05:54:53;;;;;;;14.90;4.90;;;;;;;-145.69;100.00;73703.34;5094968;28;20210;-75
2022/02/05 05:57:19;;;;;;;12.67;5.87;;;;;;;-145.69;100.00;73719.25;5095124;28;20637;-75
2022/02/05 05:59:46;;;;;;;9.93;4.60;;;;;;;-145.69;100.00;73725.25;5095212;28;20201;-75
2022/02/05 06:02:12;;;;;;;11.43;4.30;;;;;;;-145.69;100.00;73747.13;5100756;28;20204;-75
2022/02/05 06:04:39;;;;;;;15.50;5.53;;;;;;;-145.69;100.00;73727.22;5115396;28;20212;-75
2022/02/05 06:07:06;;;;;;;12.23;4.50;;;;;;;-145.69;100.00;73743.16;5115246;28;20582;-75
2022/02/05 06:09:34;;;;;;;15.90;4.97;;;;;;;-145.69;100.00;73743.16;5115442;28;20201;-75
2022/02/05 06:12:02;;;;;;;10.40;4.27;;;;;;;-145.69;100.00;73753.13;5114628;28;20648;-76
2022/02/05 06:14:29;;;;;;;14.93;4.60;;;;;;;-145.69;100.00;73731.22;5115092;28;20656;-76
2022/02/05 06:17:00;;;;;;;12.37;4.50;;;;;;;-145.69;100.00;73687.41;5115156;28;20197;-75
2022/02/05 06:19:27;;;;;;;15.03;3.93;;;;;;;-145.69;100.00;73719.25;5114973;28;20687;-76
2022/02/05 06:21:53;;;;;;;11.17;4.03;;;;;;;-145.69;100.00;73715.28;5115176;28;20201;-76
2022/02/05 06:24:20;;;;;;;15.43;4.10;;;;;;;-145.69;100.00;73731.22;5114894;28;20201;-76
2022/02/05 06:26:46;;;;;;;8.83;4.10;;;;;;;-145.69;100.00;73743.16;5115046;28;20193;-75
2022/02/05 06:29:14;;;;;;;14.50;4.20;;;;;;;-145.69;100.00;73735.19;5114956;28;20266;-76
2022/02/05 06:31:41;;;;;;;11.90;3.60;;;;;;;-145.69;100.00;73727.22;5113538;28;20586;-76
2022/02/05 06:34:07;;;;;;;11.70;4.10;;;;;;;-145.69;100.00;73739.19;5094009;28;20657;-75
2022/02/05 06:36:34;;;;;;;8.50;3.80;;;;;;;-145.69;100.00;73753.13;5094597;28;20276;-75
2022/02/05 06:39:00;;;;;;;9.43;3.77;;;;;;;-145.69;100.00;73721.25;5094224;28;20800;-76
2022/02/05 06:41:27;;;;;;;7.57;3.30;;;;;;;-145.69;100.00;73739.19;5094316;28;20251;-76
2022/02/05 06:43:53;;;;;;;13.53;3.73;;;;;;;-145.69;100.00;73743.16;5094281;28;20209;-76
2022/02/05 06:46:21;;;;;;;12.20;3.73;;;;;;;-145.69;100.00;73743.16;5094125;28;20202;-76
2022/02/05 06:48:47;;;;;;;14.03;3.47;;;;;;;-145.69;100.00;73745.16;5094266;28;20205;-76
2022/02/05 06:51:14;;;;;;;8.87;3.67;;;;;;;-145.69;100.00;73751.13;5093109;28;20283;-76
2022/02/05 06:53:40;;;;;;;11.00;3.27;;;;;;;-145.69;100.00;73759.09;5094011;28;20655;-76
2022/02/05 06:56:06;;;;;;;11.87;3.57;;;;;;;-145.69;100.00;73765.06;5094153;28;20199;-75
2022/02/05 06:58:33;;;;;;;11.07;3.53;;;;;;;-145.69;100.00;73761.06;5093879;28;20347;-76
2022/02/05 07:00:59;;;;;;;7.60;3.57;;;;;;;-145.69;100.00;73771.03;5093877;28;20209;-76
2022/02/05 07:03:27;;;;;;;10.97;3.17;;;;;;;-145.69;100.00;73775.00;5112143;28;20204;-76
2022/02/05 07:05:54;;;;;;;9.50;3.03;;;;;;;-145.69;100.00;73775.00;5114335;28;20200;-76
2022/02/05 07:08:20;;;;;;;11.33;3.47;;;;;;;-145.69;100.00;73761.06;5112910;28;20197;-76
2022/02/05 07:10:47;;;;;;;8.67;3.10;;;;;;;-145.69;100.00;73767.06;5095881;28;20289;-76
2022/02/05 07:13:16;;;;;;;8.50;3.33;;;;;;;-145.69;100.00;73743.16;5093764;28;20202;-76
2022/02/05 07:15:49;;;;;;;7.33;3.27;;;;;;;-145.69;100.00;73739.19;5093571;28;20194;-76
2022/02/05 07:18:24;;;;;;;8.48;3.28;;;;;;;-145.69;100.00;73745.16;5093546;28;20940;-76
2022/02/05 07:20:56;;;;;;;7.97;3.13;;;;;;;-145.69;100.00;73755.09;5093741;28;20541;-76
2022/02/05 07:31:34;;;;;;;6.03;3.00;;;;;;;-145.69;100.00;73743.16;5095522;28;20202;-76
2022/02/05 07:34:01;;;;;;;10.73;2.97;;;;;;;-145.69;100.00;73741.16;5113737;28;20205;-76
2022/02/05 07:36:29;;;;;;;8.33;2.60;;;;;;;-145.69;100.00;73729.22;5113541;28;20206;-76
2022/02/05 07:38:56;;;;;;;11.57;2.73;;;;;;;-145.69;100.00;73739.19;5113877;28;20575;-75
2022/02/05 07:41:22;;;;;;;7.07;2.57;;;;;;;-145.69;100.00;73727.22;5113529;28;20660;-76
2022/02/05 07:43:49;;;;;;;6.57;2.87;;;;;;;-145.69;100.00;73731.22;5113647;28;20217;-75
2022/02/05 07:46:15;;;;;;;8.17;2.80;;;;;;;-145.69;100.00;73713.28;5113512;28;20197;-76
2022/02/05 07:48:42;;;;;;;8.17;2.67;;;;;;;-145.69;100.00;73711.31;5113410;28;20205;-76
2022/02/05 07:51:09;;;;;;;7.53;3.10;;;;;;;-145.69;100.00;73717.28;5113242;28;20233;-76
2022/02/05 07:53:37;;;;;;;6.20;2.70;;;;;;;-145.69;100.00;73713.28;5113566;28;20204;-75
2022/02/05 07:56:04;;;;;;;9.07;2.70;;;;;;;-145.69;100.00;73717.28;5113253;28;20591;-76
2022/02/05 07:58:31;;;;;;;4.87;2.50;;;;;;;-145.69;100.00;73719.25;5113372;28;20221;-75
2022/02/05 08:00:58;;;;;;;13.03;2.93;;;;;;;-145.69;100.00;73723.25;5111640;28;20198;-76
2022/02/05 08:03:24;;;;;;;63.57;21.70;;;;;;;-145.69;100.00;73729.22;5113045;28;20198;-75
2022/02/05 08:05:51;;;;;;;19.93;8.90;;;;;;;-145.69;100.00;73725.25;5113139;28;20201;-75
2022/02/05 08:08:21;;;;;;;11.60;4.33;;;;;;;-145.69;100.00;73723.25;5113499;28;20208;-75
2022/02/05 08:10:55;;;;;;;6.93;2.73;;;;;;;-145.69;100.00;73719.25;5113482;28;20197;-75
2022/02/05 08:13:21;;;;;;;38.47;12.17;;;;;;;-145.69;100.00;73711.31;5113399;28;20594;-75
2022/02/05 08:15:53;;;;;;;20.13;4.70;;;;;;;-145.69;100.00;73721.25;5113317;28;20623;-76
2022/02/05 08:18:19;;;;;;;34.20;10.80;;;;;;;-145.69;100.00;73711.31;5113064;28;20228;-75
2022/02/05 08:20:46;;;;;;;45.97;12.47;;;;;;;-145.69;100.00;73701.34;5112967;28;20656;-76
2022/02/05 08:23:12;;;;;;;13.93;5.13;;;;;;;-145.69;100.00;73701.34;5113325;28;20209;-76
2022/02/05 08:25:38;;;;;;;10.07;3.97;;;;;;;-145.69;100.00;73689.41;5113286;28;20254;-76
2022/02/05 08:28:06;;;;;;;11.23;3.30;;;;;;;-145.69;100.00;73689.41;5113196;28;20201;-75
2022/02/05 08:30:33;;;;;;;14.17;4.17;;;;;;;-145.69;100.00;73671.47;5107141;28;20205;-76
2022/02/05 08:33:00;;;;;;;11.03;4.53;;;;;;;-145.69;100.00;73665.50;5092667;28;20569;-76
2022/02/05 08:35:26;;;;;;;16.27;3.23;;;;;;;-145.69;100.00;73655.56;5092845;28;20198;-75
2022/02/05 08:37:57;;;;;;;9.17;2.10;;;;;;;-145.69;100.00;73631.66;5092847;28;20202;-76
2022/02/05 08:40:23;;;;;;;7.83;2.47;;;;;;;-145.69;100.00;73607.78;5092752;28;20198;-75
2022/02/05 08:42:50;;;;;;;7.97;2.77;;;;;;;-145.69;100.00;73597.81;5092735;28;20209;-76
2022/02/05 08:45:18;;;;;;;7.97;2.83;;;;;;;-145.69;100.00;73579.91;5092587;28;20204;-75
2022/02/05 08:47:44;;;;;;;17.07;2.80;;;;;;;-145.69;100.00;73560.00;5092897;28;20194;-75
2022/02/05 08:50:10;;;;;;;14.33;2.63;;;;;;;-145.69;100.00;73548.03;5092562;28;20234;-75
2022/02/05 08:52:39;;;;;;;8.70;2.20;;;;;;;-145.69;100.00;73524.16;5092637;28;20198;-75
2022/02/05 08:55:08;;;;;;;5.67;2.60;;;;;;;-145.69;100.00;73508.22;5092584;28;20195;-74
2022/02/05 08:57:35;;;;;;;7.33;2.10;;;;;;;-145.69;100.00;73494.28;5092495;28;20202;-75
2022/02/05 09:00:09;;;;;;;9.40;2.47;;;;;;;-145.69;100.00;73480.34;5093455;28;20225;-76
2022/02/05 09:02:42;;;;;;;12.47;2.60;;;;;;;-145.69;100.00;73466.41;5092681;28;20289;-75
2022/02/05 09:05:15;;;;;;;7.43;1.90;;;;;;;-145.69;100.00;73452.47;5092538;28;20251;-75
2022/02/05 09:07:42;;;;;;;7.27;2.10;;;;;;;-145.69;100.00;73440.53;5106294;28;20190;-74
2022/02/05 09:10:22;;;;;;;4.50;1.60;;;;;;;-145.69;100.00;73438.53;5092738;28;20205;-76
2022/02/05 09:13:13;;;;;;;8.17;2.77;;;;;;;-145.69;100.00;73420.63;5092307;28;20721;-76
2022/02/05 09:15:40;;;;;;;8.37;2.50;;;;;;;-145.69;100.00;73408.69;5100367;28;20600;-75
2022/02/05 09:18:08;;;;;;;6.87;1.87;;;;;;;-145.69;100.00;73384.78;5102254;28;20193;-75
2022/02/05 09:20:34;;;;;;;8.17;2.17;;;;;;;-145.69;100.00;73376.81;5102530;28;20209;-75
2022/02/05 09:23:01;;;;;;;5.40;1.80;;;;;;;-145.69;100.00;73348.97;5101168;28;20652;-75
2022/02/05 09:25:29;;;;;;;1.77;1.50;;;;;;;-145.69;100.00;73344.97;5097176;28;20227;-75
2022/02/05 09:27:55;;;;;;;7.30;1.90;;;;;;;-145.69;100.00;73344.97;5116220;28;20563;-75
2022/02/05 09:30:31;;;;;;;9.63;1.80;;;;;;;-145.69;100.00;73333.03;5115994;28;20197;-75
2022/02/05 09:32:57;;;;;;;4.93;1.60;;;;;;;-145.69;100.00;73321.09;5116080;28;20605;-75
2022/02/05 09:35:25;;;;;;;5.63;1.50;;;;;;;-145.69;100.00;73301.19;5115738;28;20197;-75
2022/02/05 09:37:52;;;;;;;24.20;7.60;;;;;;;-145.69;100.00;73313.13;5116124;28;20197;-74
2022/02/05 09:40:18;;;;;;;5.73;2.40;;;;;;;-145.69;100.00;73305.16;5115640;28;20236;-74
2022/02/05 09:42:45;;;;;;;13.10;1.50;;;;;;;-145.69;100.00;73301.19;5115803;28;20206;-75
2022/02/05 09:45:12;;;;;;;3.07;1.97;;;;;;;-145.69;100.00;73285.25;5115768;28;20579;-75
2022/02/05 09:47:39;;;;;;;8.30;1.50;;;;;;;-145.69;100.00;73297.19;5115560;28;20227;-75
2022/02/05 09:50:06;;;;;;;11.27;2.07;;;;;;;-145.69;100.00;73283.25;5115367;28;20232;-75
2022/02/05 09:52:34;;;;;;;14.37;1.50;;;;;;;-145.69;100.00;73285.25;5115750;28;20202;-75
2022/02/05 09:55:01;;;;;;;8.25;2.55;;;;;;;-145.69;100.00;73271.31;5115358;28;20458;-74
2022/02/05 09:57:27;;;;;;;13.73;2.37;;;;;;;-145.69;100.00;73273.31;5115418;28;20207;-74
2022/02/05 09:59:57;;;;;;;8.93;2.83;;;;;;;-145.69;100.00;73273.31;5109999;28;20225;-75
2022/02/05 10:02:25;;;;;;;6.67;2.37;;;;;;;-145.69;100.00;73259.38;5094855;28;20778;-75
2022/02/05 10:04:54;;;;;;;5.57;1.80;;;;;;;-145.69;98.79;73255.38;5094993;28;20288;-75
2022/02/05 10:07:21;;;;;;;4.97;1.60;;;;;;;-145.69;99.49;73245.44;5106749;28;20197;-75
2022/02/05 10:09:56;;;;;;;9.23;2.20;;;;;;;-145.69;100.00;73243.44;5115381;28;20285;-75
2022/02/05 10:12:23;;;;;;;7.97;1.70;;;;;;;-145.69;98.81;73225.53;5115252;28;20197;-74
2022/02/05 10:14:54;;;;;;;7.57;1.80;;;;;;;-145.69;95.86;73237.47;5115073;28;20199;-74
2022/02/05 10:17:21;;;;;;;7.40;1.50;;;;;;;-145.69;96.03;73239.47;5115251;28;20261;-75
2022/02/05 10:19:50;;;;;;;8.03;1.73;;;;;;;-145.69;95.17;73247.41;5115038;28;20221;-75
2022/02/05 10:22:17;;;;;;;7.63;1.73;;;;;;;-145.69;98.45;73237.47;5114996;28;20193;-75
2022/02/05 10:24:51;;;;;;;8.33;1.83;;;;;;;-145.69;98.86;73239.47;5114723;28;20594;-75
2022/02/05 10:27:28;;;;;;;8.27;1.93;;;;;;;-145.69;97.92;73187.69;5114609;28;20200;-76
2022/02/05 10:30:07;;;;;;;7.53;1.73;;;;;;;-145.69;96.94;73165.81;5115011;28;20300;-75
2022/02/05 10:32:34;;;;;;;6.87;2.10;;;;;;;-145.69;95.84;73165.81;5114936;28;20197;-76
2022/02/05 10:35:05;;;;;;;9.87;2.47;;;;;;;-145.69;95.75;73159.84;5114821;28;20278;-76
2022/02/05 10:37:42;;;;;;;9.83;2.20;;;;;;;-145.69;93.54;73165.81;5099919;28;20212;-76
2022/02/05 10:40:12;;;;;;;11.70;1.80;;;;;;;-145.69;92.32;73169.78;5094210;28;20225;-75
2022/02/05 10:43:03;;;;;;;7.20;2.00;;;;;;;-145.69;98.50;73145.91;5094142;28;20568;-75
2022/02/05 10:45:41;;;;;;;13.90;3.73;;;;;;;-145.69;97.75;73086.19;5094222;28;20198;-75
2022/02/05 10:48:09;;;;;;;5.73;2.67;;;;;;;-145.69;94.83;73090.16;5094098;28;20204;-75
2022/02/05 10:50:39;;;;;;;9.23;3.50;;;;;;;-145.69;93.00;73076.22;5094017;28;20328;-75
2022/02/05 10:53:11;;;;;;;7.00;2.70;;;;;;;-145.69;94.10;73058.31;5094176;28;20613;-75
2022/02/05 10:55:53;;;;;;;8.40;2.13;;;;;;;-145.69;90.01;73050.34;5094054;28;20205;-75
2022/02/05 10:58:33;;;;;;;6.90;1.77;;;;;;;-145.69;89.84;73058.31;5094059;28;20201;-75
2022/02/05 11:07:02;;;;;;;6.03;1.83;;;;;;;-145.69;89.21;73020.47;5093842;28;20224;-75
2022/02/05 11:09:28;;;;;;;3.73;1.20;;;;;;;-145.69;86.89;73042.38;5093514;28;20683;-76
2022/02/05 11:20:14;;;;;;;7.93;1.30;;;;;;;-145.69;85.11;73040.38;5093497;28;20248;-75
2022/02/05 11:22:46;;;;;;;9.03;1.60;;;;;;;-145.69;84.63;73010.53;5093655;28;20201;-76
2022/02/05 11:25:15;;;;;;;6.80;1.40;;;;;;;-145.69;85.26;72980.66;5093672;28;20213;-76
2022/02/05 11:27:43;;;;;;;5.57;1.30;;;;;;;-145.69;84.17;72978.69;5093567;28;20206;-76
2022/02/05 11:30:34;;;;;;;4.90;1.40;;;;;;;-145.69;81.41;72956.78;5103217;28;20194;-76
2022/02/05 11:33:05;;;;;;;3.70;1.33;;;;;;;-145.69;82.43;72956.78;5114278;28;20197;-76
2022/02/05 11:35:44;;;;;;;5.53;1.63;;;;;;;-145.69;79.23;72954.78;5113598;28;20202;-76
2022/02/05 11:38:12;;;;;;;6.53;1.40;;;;;;;-145.69;77.85;72922.94;5113106;28;20349;-76
2022/02/05 11:40:45;;;;;;;6.47;1.27;;;;;;;-145.69;79.19;72962.75;5113479;28;20240;-76
2022/02/05 11:43:17;;;;;;;5.10;1.20;;;;;;;-145.69;76.10;72990.63;5113794;28;20197;-76
2022/02/05 11:45:45;;;;;;;6.13;0.90;;;;;;;-145.69;76.22;73014.50;5113547;28;20197;-76
2022/02/05 11:48:54;;;;;;;3.50;1.30;;;;;;;-145.69;78.47;72994.59;5113607;28;20205;-76
2022/02/05 11:51:22;;;;;;;4.73;1.63;;;;;;;-145.69;75.28;73002.56;5065787;28;20252;-75
2022/02/05 11:54:07;;;;;;;6.93;1.10;;;;;;;-145.69;78.18;73038.41;5113658;28;20201;-75
2022/02/05 11:56:48;;;;;;;3.83;1.20;;;;;;;-145.69;81.30;72990.63;5113444;28;20197;-75
2022/02/05 11:59:15;;;;;;;6.40;1.10;;;;;;;-145.69;77.89;72982.66;5109427;28;20198;-76
2022/02/05 12:01:45;;;;;;;8.00;1.20;;;;;;;-145.69;75.70;72990.63;5093219;28;20585;-75
2022/02/05 12:04:13;;;;;;;4.80;1.17;;;;;;;-145.69;74.72;72966.72;5093061;28;20210;-76
2022/02/05 12:06:49;;;;;;;7.60;1.13;;;;;;;-145.69;74.86;72946.81;5093102;28;20201;-76
2022/02/05 12:09:41;;;;;;;2.17;1.13;;;;;;;-145.69;71.28;72972.72;5092837;28;20189;-76
2022/02/05 12:12:39;;;;;;;9.43;1.37;;;;;;;-145.69;71.38;72962.75;5093132;28;20534;-76
2022/02/05 12:15:26;;;;;;;5.67;1.10;;;;;;;-145.69;73.25;72988.63;5092879;28;20208;-76
2022/02/05 12:18:13;;;;;;;3.80;1.00;;;;;;;-145.69;75.47;72978.69;5086506;28;20255;-76
2022/02/05 12:21:26;;;;;;;6.63;1.10;;;;;;;-145.69;75.29;72962.75;5093124;28;20312;-76
2022/02/05 12:24:35;;;;;;;2.77;1.17;;;;;;;-145.69;72.21;72948.81;5092927;28;20266;-76
2022/02/05 12:27:03;;;;;;;3.53;1.07;;;;;;;-145.69;75.79;72918.97;5092947;28;20205;-76
2022/02/05 12:29:31;;;;;;;2.83;0.93;;;;;;;-145.69;74.04;72938.88;5098099;28;20201;-76
2022/02/05 12:31:59;;;;;;;4.17;1.00;;;;;;;-145.69;69.98;72954.78;5112999;28;20194;-76
2022/02/05 12:34:35;;;;;;;3.43;1.07;;;;;;;-145.69;73.20;72930.91;5113109;28;20232;-75
2022/02/05 12:37:03;;;;;;;5.87;1.20;;;;;;;-145.69;72.49;72895.06;5113468;28;20205;-76
2022/02/05 12:39:33;;;;;;;4.50;1.10;;;;;;;-145.69;71.35;72895.06;5113174;28;20611;-76
2022/02/05 12:42:03;;;;;;;7.63;1.20;;;;;;;-145.69;68.15;72913.00;5114480;28;20615;-76
2022/02/05 12:44:31;;;;;;;1.80;0.90;;;;;;;-145.69;68.87;72873.19;5113196;28;20197;-76
2022/02/05 12:47:02;;;;;;;7.83;1.20;;;;;;;-145.69;68.74;72879.16;5112976;28;20200;-75
2022/02/05 12:49:35;;;;;;;2.80;0.90;;;;;;;-145.69;63.54;72914.97;5113887;28;20250;-76
2022/02/05 12:52:03;;;;;;;6.73;1.17;;;;;;;-145.69;72.88;72911.00;5116934;28;20263;-76
2022/02/05 12:54:33;;;;;;;7.20;1.20;;;;;;;-145.69;70.34;72871.19;5101339;28;20206;-76
2022/02/05 12:57:01;;;;;;;6.50;1.00;;;;;;;-145.69;67.52;72861.22;5097219;28;20601;-76